sensor_id;sensor_type;location;lat;lon;timestamp;pressure;altitude;pressure_sealevel;temperature
43802;BMP280;29429;51.074;13.764;2023-05-19T13:16:25;100689.41;;;19.75
43802;BMP280;29429;51.074;13.764;2023-05-19T13:24:24;100696.00;;;19.79
43802;BMP280;29429;51.074;13.764;2023-05-19T13:28:32;100693.66;;;19.83
43802;BMP280;29429;51.074;13.764;2023-05-19T13:47:04;100696.75;;;19.75
43802;BMP280;29429;51.074;13.764;2023-05-19T13:55:25;100692.81;;;19.82
43802;BMP280;29429;51.074;13.764;2023-05-19T13:59:19;100683.19;;;19.75
43802;BMP280;29429;51.074;13.764;2023-05-19T14:02:19;100676.53;;;19.54
43802;BMP280;29429;51.074;13.764;2023-05-19T14:05:55;100692.56;;;19.56
43802;BMP280;29429;51.074;13.764;2023-05-19T14:09:10;100692.47;;;19.51
43802;BMP280;29429;51.074;13.764;2023-05-19T14:11:54;100692.09;;;19.35
43802;BMP280;29429;51.074;13.764;2023-05-19T14:18:36;100698.50;;;19.18
43802;BMP280;29429;51.074;13.764;2023-05-19T14:21:31;100699.94;;;19.09
43802;BMP280;29429;51.074;13.764;2023-05-19T14:24:06;100691.00;;;19.08
43802;BMP280;29429;51.074;13.764;2023-05-19T14:26:36;100698.03;;;19.09
43802;BMP280;29429;51.074;13.764;2023-05-19T14:29:03;100694.38;;;19.15
43802;BMP280;29429;51.074;13.764;2023-05-19T14:31:33;100692.72;;;19.14
43802;BMP280;29429;51.074;13.764;2023-05-19T14:34:01;100693.69;;;19.08
43802;BMP280;29429;51.074;13.764;2023-05-19T14:36:28;100683.69;;;19.09
43802;BMP280;29429;51.074;13.764;2023-05-19T14:38:58;100688.50;;;19.18
43802;BMP280;29429;51.074;13.764;2023-05-19T14:41:25;100693.66;;;19.31
43802;BMP280;29429;51.074;13.764;2023-05-19T14:43:53;100680.44;;;19.47
43802;BMP280;29429;51.074;13.764;2023-05-19T14:46:20;100675.59;;;19.60
43802;BMP280;29429;51.074;13.764;2023-05-19T14:48:48;100667.91;;;19.69
43802;BMP280;29429;51.074;13.764;2023-05-19T14:51:16;100685.41;;;19.78
43802;BMP280;29429;51.074;13.764;2023-05-19T14:53:43;100677.78;;;19.75
43802;BMP280;29429;51.074;13.764;2023-05-19T14:56:12;100685.91;;;19.75
43802;BMP280;29429;51.074;13.764;2023-05-19T14:58:42;100687.53;;;19.76
43802;BMP280;29429;51.074;13.764;2023-05-19T15:01:10;100686.88;;;19.57
43802;BMP280;29429;51.074;13.764;2023-05-19T15:03:38;100690.81;;;19.50
43802;BMP280;29429;51.074;13.764;2023-05-19T15:06:08;100704.91;;;19.52
43802;BMP280;29429;51.074;13.764;2023-05-19T15:08:37;100699.97;;;19.49
43802;BMP280;29429;51.074;13.764;2023-05-19T15:11:13;100705.03;;;19.33
43802;BMP280;29429;51.074;13.764;2023-05-19T15:13:47;100700.97;;;19.19
43802;BMP280;29429;51.074;13.764;2023-05-19T15:16:15;100708.94;;;19.14
43802;BMP280;29429;51.074;13.764;2023-05-19T15:18:46;100705.34;;;19.09
43802;BMP280;29429;51.074;13.764;2023-05-19T15:21:20;100706.50;;;19.01
43802;BMP280;29429;51.074;13.764;2023-05-19T15:24:05;100709.19;;;19.13
43802;BMP280;29429;51.074;13.764;2023-05-19T15:27:00;100714.09;;;19.27
43802;BMP280;29429;51.074;13.764;2023-05-19T15:29:28;100714.97;;;19.16
43802;BMP280;29429;51.074;13.764;2023-05-19T15:31:55;100715.06;;;19.21
43802;BMP280;29429;51.074;13.764;2023-05-19T15:34:24;100718.72;;;19.27
43802;BMP280;29429;51.074;13.764;2023-05-19T15:36:54;100723.50;;;19.36
43802;BMP280;29429;51.074;13.764;2023-05-19T15:39:22;100718.34;;;19.35
43802;BMP280;29429;51.074;13.764;2023-05-19T15:41:49;100720.03;;;19.24
43802;BMP280;29429;51.074;13.764;2023-05-19T15:44:18;100712.47;;;19.26
43802;BMP280;29429;51.074;13.764;2023-05-19T15:47:05;100718.00;;;19.20
43802;BMP280;29429;51.074;13.764;2023-05-19T15:49:36;100714.97;;;19.05
43802;BMP280;29429;51.074;13.764;2023-05-19T15:52:12;100726.13;;;18.97
43802;BMP280;29429;51.074;13.764;2023-05-19T15:54:47;100722.97;;;18.88
43802;BMP280;29429;51.074;13.764;2023-05-19T15:57:16;100718.03;;;18.85
43802;BMP280;29429;51.074;13.764;2023-05-19T15:59:44;100713.69;;;18.61
43802;BMP280;29429;51.074;13.764;2023-05-19T16:02:25;100719.47;;;18.46
43802;BMP280;29429;51.074;13.764;2023-05-19T16:05:08;100721.47;;;18.39
43802;BMP280;29429;51.074;13.764;2023-05-19T16:07:57;100725.13;;;18.45
43802;BMP280;29429;51.074;13.764;2023-05-19T16:10:28;100735.56;;;18.41
43802;BMP280;29429;51.074;13.764;2023-05-19T16:12:55;100742.13;;;18.34
43802;BMP280;29429;51.074;13.764;2023-05-19T16:15:23;100744.47;;;18.30
43802;BMP280;29429;51.074;13.764;2023-05-19T16:17:50;100750.88;;;18.17
43802;BMP280;29429;51.074;13.764;2023-05-19T16:20:23;100741.25;;;18.10
43802;BMP280;29429;51.074;13.764;2023-05-19T16:22:54;100738.25;;;18.00
43802;BMP280;29429;51.074;13.764;2023-05-19T16:25:22;100735.66;;;17.93
43802;BMP280;29429;51.074;13.764;2023-05-19T16:27:50;100740.38;;;17.80
43802;BMP280;29429;51.074;13.764;2023-05-19T16:30:18;100747.63;;;17.68
43802;BMP280;29429;51.074;13.764;2023-05-19T16:32:46;100747.81;;;17.66
43802;BMP280;29429;51.074;13.764;2023-05-19T16:35:25;100749.09;;;17.63
43802;BMP280;29429;51.074;13.764;2023-05-19T16:37:57;100747.53;;;17.56
43802;BMP280;29429;51.074;13.764;2023-05-19T16:40:25;100742.66;;;17.46
43802;BMP280;29429;51.074;13.764;2023-05-19T16:42:58;100754.91;;;17.42
43802;BMP280;29429;51.074;13.764;2023-05-19T16:45:25;100750.81;;;17.40
43802;BMP280;29429;51.074;13.764;2023-05-19T16:47:53;100756.19;;;17.40
43802;BMP280;29429;51.074;13.764;2023-05-19T16:50:22;100752.31;;;17.36
43802;BMP280;29429;51.074;13.764;2023-05-19T16:52:50;100754.03;;;17.30
43802;BMP280;29429;51.074;13.764;2023-05-19T16:55:18;100757.41;;;17.26
43802;BMP280;29429;51.074;13.764;2023-05-19T16:57:46;100759.88;;;17.27
43802;BMP280;29429;51.074;13.764;2023-05-19T17:00:14;100760.84;;;17.33
43802;BMP280;29429;51.074;13.764;2023-05-19T17:02:44;100764.38;;;17.33
43802;BMP280;29429;51.074;13.764;2023-05-19T17:05:27;100750.28;;;17.31
43802;BMP280;29429;51.074;13.764;2023-05-19T17:07:56;100751.09;;;17.32
43802;BMP280;29429;51.074;13.764;2023-05-19T17:10:24;100741.13;;;17.32
43802;BMP280;29429;51.074;13.764;2023-05-19T17:12:52;100741.53;;;17.36
43802;BMP280;29429;51.074;13.764;2023-05-19T17:15:20;100742.72;;;17.40
43802;BMP280;29429;51.074;13.764;2023-05-19T17:17:50;100737.94;;;17.42
43802;BMP280;29429;51.074;13.764;2023-05-19T17:20:31;100737.47;;;17.45
43802;BMP280;29429;51.074;13.764;2023-05-19T17:23:06;100742.25;;;17.43
43802;BMP280;29429;51.074;13.764;2023-05-19T17:25:34;100740.09;;;17.33
43802;BMP280;29429;51.074;13.764;2023-05-19T17:28:02;100737.59;;;17.32
43802;BMP280;29429;51.074;13.764;2023-05-19T17:30:29;100743.28;;;17.24
43802;BMP280;29429;51.074;13.764;2023-05-19T17:32:57;100748.34;;;17.20
43802;BMP280;29429;51.074;13.764;2023-05-19T17:35:25;100750.78;;;17.22
43802;BMP280;29429;51.074;13.764;2023-05-19T17:37:54;100754.56;;;17.21
43802;BMP280;29429;51.074;13.764;2023-05-19T17:40:22;100748.19;;;17.15
43802;BMP280;29429;51.074;13.764;2023-05-19T17:42:49;100745.09;;;17.12
43802;BMP280;29429;51.074;13.764;2023-05-19T17:45:17;100767.09;;;17.09
43802;BMP280;29429;51.074;13.764;2023-05-19T17:47:44;100767.19;;;17.02
43802;BMP280;29429;51.074;13.764;2023-05-19T17:50:12;100758.09;;;16.96
43802;BMP280;29429;51.074;13.764;2023-05-19T17:52:39;100765.56;;;16.94
43802;BMP280;29429;51.074;13.764;2023-05-19T17:55:08;100763.09;;;16.93
43802;BMP280;29429;51.074;13.764;2023-05-19T17:57:39;100769.75;;;16.90
43802;BMP280;29429;51.074;13.764;2023-05-19T18:00:10;100768.94;;;16.90
43802;BMP280;29429;51.074;13.764;2023-05-19T18:02:39;100759.84;;;16.84
43802;BMP280;29429;51.074;13.764;2023-05-19T18:05:07;100753.72;;;16.77
43802;BMP280;29429;51.074;13.764;2023-05-19T18:07:37;100759.13;;;16.71
43802;BMP280;29429;51.074;13.764;2023-05-19T18:10:08;100757.53;;;16.63
43802;BMP280;29429;51.074;13.764;2023-05-19T18:20:54;100748.19;;;16.34
43802;BMP280;29429;51.074;13.764;2023-05-19T20:04:05;100791.28;;;15.19
43802;BMP280;29429;51.074;13.764;2023-05-19T20:06:33;100789.22;;;15.21
43802;BMP280;29429;51.074;13.764;2023-05-19T20:09:01;100787.75;;;15.25
43802;BMP280;29429;51.074;13.764;2023-05-19T20:11:29;100790.22;;;15.20
43802;BMP280;29429;51.074;13.764;2023-05-19T20:13:57;100785.69;;;15.21
43802;BMP280;29429;51.074;13.764;2023-05-19T20:16:24;100787.97;;;15.24
43802;BMP280;29429;51.074;13.764;2023-05-19T20:18:52;100783.00;;;15.21
43802;BMP280;29429;51.074;13.764;2023-05-19T20:21:20;100791.69;;;15.23
43802;BMP280;29429;51.074;13.764;2023-05-19T20:23:48;100786.72;;;15.20
43802;BMP280;29429;51.074;13.764;2023-05-19T20:26:17;100787.13;;;15.17
43802;BMP280;29429;51.074;13.764;2023-05-19T20:28:44;100789.41;;;15.20
43802;BMP280;29429;51.074;13.764;2023-05-19T20:31:12;100786.31;;;15.16
43802;BMP280;29429;51.074;13.764;2023-05-19T20:33:40;100788.78;;;15.18
43802;BMP280;29429;51.074;13.764;2023-05-19T20:36:07;100787.78;;;15.19
43802;BMP280;29429;51.074;13.764;2023-05-19T20:38:40;100792.09;;;15.20
43802;BMP280;29429;51.074;13.764;2023-05-19T20:41:14;100791.69;;;15.23
43802;BMP280;29429;51.074;13.764;2023-05-19T20:43:41;100789.81;;;15.23
43802;BMP280;29429;51.074;13.764;2023-05-19T20:46:09;100796.03;;;15.24
43802;BMP280;29429;51.074;13.764;2023-05-19T20:48:37;100789.59;;;15.25
43802;BMP280;29429;51.074;13.764;2023-05-19T20:51:05;100795.81;;;15.25
43802;BMP280;29429;51.074;13.764;2023-05-19T20:53:45;100796.22;;;15.29
43802;BMP280;29429;51.074;13.764;2023-05-19T20:56:12;100794.97;;;15.25
43802;BMP280;29429;51.074;13.764;2023-05-19T20:58:40;100794.78;;;15.27
43802;BMP280;29429;51.074;13.764;2023-05-19T21:01:07;100797.25;;;15.28
43802;BMP280;29429;51.074;13.764;2023-05-19T21:03:35;100793.53;;;15.29
43802;BMP280;29429;51.074;13.764;2023-05-19T21:06:02;100786.91;;;15.25
43802;BMP280;29429;51.074;13.764;2023-05-19T21:08:30;100783.41;;;15.24
43802;BMP280;29429;51.074;13.764;2023-05-19T21:11:25;100785.28;;;15.24
43802;BMP280;29429;51.074;13.764;2023-05-19T21:14:08;100783.84;;;15.21
43802;BMP280;29429;51.074;13.764;2023-05-19T21:16:36;100783.63;;;15.23
43802;BMP280;29429;51.074;13.764;2023-05-19T21:19:05;100785.47;;;15.22
43802;BMP280;29429;51.074;13.764;2023-05-19T21:21:33;100778.66;;;15.20
43802;BMP280;29429;51.074;13.764;2023-05-19T21:24:01;100786.09;;;15.18
43802;BMP280;29429;51.074;13.764;2023-05-19T21:26:37;100791.69;;;15.16
